sensor_id;sensor_type;location;lat;lon;timestamp;temperature;humidity
15156;DHT22;7678;50.058;8.306;2023-04-03T00:01:21;4.30;99.90
15156;DHT22;7678;50.058;8.306;2023-04-03T00:03:50;4.30;99.90
15156;DHT22;7678;50.058;8.306;2023-04-03T00:06:19;4.40;99.90
15156;DHT22;7678;50.058;8.306;2023-04-03T00:08:47;4.30;99.90
15156;DHT22;7678;50.058;8.306;2023-04-03T00:11:16;4.40;99.90
15156;DHT22;7678;50.058;8.306;2023-04-03T00:13:44;4.30;99.90
15156;DHT22;7678;50.058;8.306;2023-04-03T00:16:13;4.40;99.90
15156;DHT22;7678;50.058;8.306;2023-04-03T00:18:42;4.40;99.90
15156;DHT22;7678;50.058;8.306;2023-04-03T00:21:12;4.30;99.90
15156;DHT22;7678;50.058;8.306;2023-04-03T00:23:40;4.30;99.90
15156;DHT22;7678;50.058;8.306;2023-04-03T00:26:08;4.30;99.90
15156;DHT22;7678;50.058;8.306;2023-04-03T00:28:37;4.40;99.90
15156;DHT22;7678;50.058;8.306;2023-04-03T00:31:05;4.30;99.90
15156;DHT22;7678;50.058;8.306;2023-04-03T00:33:34;4.40;99.90
15156;DHT22;7678;50.058;8.306;2023-04-03T00:36:06;4.40;99.90
15156;DHT22;7678;50.058;8.306;2023-04-03T00:38:37;4.40;99.90
15156;DHT22;7678;50.058;8.306;2023-04-03T00:41:05;4.40;99.90
15156;DHT22;7678;50.058;8.306;2023-04-03T00:43:33;4.40;99.90
15156;DHT22;7678;50.058;8.306;2023-04-03T00:46:02;4.40;99.90
15156;DHT22;7678;50.058;8.306;2023-04-03T00:48:32;4.50;99.90
15156;DHT22;7678;50.058;8.306;2023-04-03T00:51:02;4.50;99.90
15156;DHT22;7678;50.058;8.306;2023-04-03T00:53:35;4.50;99.90
15156;DHT22;7678;50.058;8.306;2023-04-03T00:56:09;4.50;99.90
15156;DHT22;7678;50.058;8.306;2023-04-03T00:58:41;4.60;99.90
15156;DHT22;7678;50.058;8.306;2023-04-03T01:01:13;4.60;99.90
15156;DHT22;7678;50.058;8.306;2023-04-03T01:03:43;4.60;99.90
15156;DHT22;7678;50.058;8.306;2023-04-03T01:06:11;4.60;99.90
15156;DHT22;7678;50.058;8.306;2023-04-03T01:08:40;4.60;99.90
15156;DHT22;7678;50.058;8.306;2023-04-03T01:11:09;4.70;99.90
15156;DHT22;7678;50.058;8.306;2023-04-03T01:13:38;4.80;99.90
15156;DHT22;7678;50.058;8.306;2023-04-03T01:16:07;4.80;99.90
15156;DHT22;7678;50.058;8.306;2023-04-03T01:18:38;4.80;99.90
15156;DHT22;7678;50.058;8.306;2023-04-03T01:21:23;4.80;99.90
15156;DHT22;7678;50.058;8.306;2023-04-03T01:24:04;4.80;99.90
15156;DHT22;7678;50.058;8.306;2023-04-03T01:26:35;4.90;99.90
15156;DHT22;7678;50.058;8.306;2023-04-03T01:29:04;4.80;99.90
15156;DHT22;7678;50.058;8.306;2023-04-03T01:31:46;4.80;99.90
15156;DHT22;7678;50.058;8.306;2023-04-03T01:34:14;4.80;99.90
15156;DHT22;7678;50.058;8.306;2023-04-03T01:36:42;4.80;99.90
15156;DHT22;7678;50.058;8.306;2023-04-03T01:39:10;4.70;99.90
15156;DHT22;7678;50.058;8.306;2023-04-03T01:41:39;4.70;99.90
15156;DHT22;7678;50.058;8.306;2023-04-03T01:44:07;4.70;99.90
15156;DHT22;7678;50.058;8.306;2023-04-03T01:46:35;4.80;99.90
15156;DHT22;7678;50.058;8.306;2023-04-03T01:49:05;4.80;99.90
15156;DHT22;7678;50.058;8.306;2023-04-03T01:51:34;4.80;99.90
15156;DHT22;7678;50.058;8.306;2023-04-03T01:54:02;4.90;99.90
15156;DHT22;7678;50.058;8.306;2023-04-03T01:56:30;4.80;99.90
15156;DHT22;7678;50.058;8.306;2023-04-03T01:58:58;4.80;99.90
15156;DHT22;7678;50.058;8.306;2023-04-03T02:01:27;4.80;99.90
15156;DHT22;7678;50.058;8.306;2023-04-03T02:03:55;4.80;99.90
15156;DHT22;7678;50.058;8.306;2023-04-03T02:06:24;4.70;99.90
15156;DHT22;7678;50.058;8.306;2023-04-03T02:08:53;4.70;99.90
15156;DHT22;7678;50.058;8.306;2023-04-03T02:11:21;4.70;99.90
15156;DHT22;7678;50.058;8.306;2023-04-03T02:13:49;4.70;99.90
15156;DHT22;7678;50.058;8.306;2023-04-03T02:16:18;4.70;99.90
15156;DHT22;7678;50.058;8.306;2023-04-03T02:18:46;4.70;99.90
15156;DHT22;7678;50.058;8.306;2023-04-03T02:21:14;4.70;99.90
15156;DHT22;7678;50.058;8.306;2023-04-03T02:23:44;4.60;99.90
15156;DHT22;7678;50.058;8.306;2023-04-03T02:26:14;4.50;99.90
15156;DHT22;7678;50.058;8.306;2023-04-03T02:28:42;4.50;99.90
15156;DHT22;7678;50.058;8.306;2023-04-03T02:31:11;4.50;99.90
15156;DHT22;7678;50.058;8.306;2023-04-03T02:33:39;4.50;99.90
15156;DHT22;7678;50.058;8.306;2023-04-03T02:36:08;4.50;99.90
15156;DHT22;7678;50.058;8.306;2023-04-03T02:38:36;4.50;99.90
15156;DHT22;7678;50.058;8.306;2023-04-03T02:41:07;4.50;99.90
15156;DHT22;7678;50.058;8.306;2023-04-03T02:43:36;4.50;99.90
15156;DHT22;7678;50.058;8.306;2023-04-03T02:46:05;4.60;99.90
15156;DHT22;7678;50.058;8.306;2023-04-03T02:48:33;4.60;99.90
15156;DHT22;7678;50.058;8.306;2023-04-03T02:51:02;4.60;99.90
15156;DHT22;7678;50.058;8.306;2023-04-03T02:53:30;4.60;99.90
15156;DHT22;7678;50.058;8.306;2023-04-03T02:55:58;4.60;99.90
15156;DHT22;7678;50.058;8.306;2023-04-03T02:58:28;4.60;99.90
15156;DHT22;7678;50.058;8.306;2023-04-03T03:00:56;4.50;99.90
15156;DHT22;7678;50.058;8.306;2023-04-03T03:03:25;4.50;99.90
15156;DHT22;7678;50.058;8.306;2023-04-03T03:06:01;4.50;99.90
15156;DHT22;7678;50.058;8.306;2023-04-03T03:08:29;4.50;99.90
15156;DHT22;7678;50.058;8.306;2023-04-03T03:10:58;4.50;99.90
15156;DHT22;7678;50.058;8.306;2023-04-03T03:13:28;4.40;99.90
15156;DHT22;7678;50.058;8.306;2023-04-03T03:15:57;4.50;99.90
15156;DHT22;7678;50.058;8.306;2023-04-03T03:18:25;4.40;99.90
15156;DHT22;7678;50.058;8.306;2023-04-03T03:20:54;4.40;99.90
15156;DHT22;7678;50.058;8.306;2023-04-03T03:23:24;4.40;99.90
15156;DHT22;7678;50.058;8.306;2023-04-03T03:25:55;4.40;99.90
15156;DHT22;7678;50.058;8.306;2023-04-03T03:28:23;4.40;99.90
15156;DHT22;7678;50.058;8.306;2023-04-03T03:30:53;4.40;99.90
15156;DHT22;7678;50.058;8.306;2023-04-03T03:33:22;4.30;99.90
15156;DHT22;7678;50.058;8.306;2023-04-03T03:35:50;4.30;99.90
15156;DHT22;7678;50.058;8.306;2023-04-03T03:38:19;4.20;99.90
15156;DHT22;7678;50.058;8.306;2023-04-03T03:40:48;4.30;99.90
15156;DHT22;7678;50.058;8.306;2023-04-03T03:43:17;4.30;99.90
15156;DHT22;7678;50.058;8.306;2023-04-03T03:45:50;4.20;99.90
15156;DHT22;7678;50.058;8.306;2023-04-03T03:48:20;4.20;99.90
15156;DHT22;7678;50.058;8.306;2023-04-03T03:50:49;4.10;99.90
15156;DHT22;7678;50.058;8.306;2023-04-03T03:53:17;4.10;99.90
15156;DHT22;7678;50.058;8.306;2023-04-03T03:55:45;4.10;99.90
15156;DHT22;7678;50.058;8.306;2023-04-03T03:58:14;4.00;99.90
15156;DHT22;7678;50.058;8.306;2023-04-03T04:00:42;3.90;99.90
15156;DHT22;7678;50.058;8.306;2023-04-03T04:03:10;3.80;99.90
15156;DHT22;7678;50.058;8.306;2023-04-03T04:05:40;3.80;99.90
15156;DHT22;7678;50.058;8.306;2023-04-03T04:08:10;3.70;99.90
15156;DHT22;7678;50.058;8.306;2023-04-03T04:10:38;3.70;99.90
15156;DHT22;7678;50.058;8.306;2023-04-03T04:13:07;3.70;99.90
15156;DHT22;7678;50.058;8.306;2023-04-03T04:15:36;3.60;99.90
15156;DHT22;7678;50.058;8.306;2023-04-03T04:18:06;3.60;99.90
15156;DHT22;7678;50.058;8.306;2023-04-03T04:20:34;3.60;99.90
15156;DHT22;7678;50.058;8.306;2023-04-03T04:23:05;3.40;99.90
15156;DHT22;7678;50.058;8.306;2023-04-03T04:25:33;3.40;99.90
15156;DHT22;7678;50.058;8.306;2023-04-03T04:28:02;3.40;99.90
15156;DHT22;7678;50.058;8.306;2023-04-03T04:30:30;3.30;99.90
15156;DHT22;7678;50.058;8.306;2023-04-03T04:32:59;3.20;99.90
15156;DHT22;7678;50.058;8.306;2023-04-03T04:35:29;3.20;99.90
15156;DHT22;7678;50.058;8.306;2023-04-03T04:37:57;3.20;99.90
15156;DHT22;7678;50.058;8.306;2023-04-03T04:40:27;3.10;99.90
15156;DHT22;7678;50.058;8.306;2023-04-03T04:42:55;3.10;99.90
15156;DHT22;7678;50.058;8.306;2023-04-03T04:45:23;3.00;99.90
15156;DHT22;7678;50.058;8.306;2023-04-03T04:47:51;3.00;99.90
15156;DHT22;7678;50.058;8.306;2023-04-03T04:50:19;2.80;99.90
15156;DHT22;7678;50.058;8.306;2023-04-03T04:52:48;2.70;99.90
15156;DHT22;7678;50.058;8.306;2023-04-03T04:55:16;2.70;99.90
15156;DHT22;7678;50.058;8.306;2023-04-03T04:57:46;2.70;99.90
15156;DHT22;7678;50.058;8.306;2023-04-03T05:00:15;2.70;99.90
15156;DHT22;7678;50.058;8.306;2023-04-03T05:02:44;2.60;99.90
15156;DHT22;7678;50.058;8.306;2023-04-03T05:05:13;2.60;99.90
15156;DHT22;7678;50.058;8.306;2023-04-03T05:07:41;2.60;99.90
15156;DHT22;7678;50.058;8.306;2023-04-03T05:10:12;2.50;99.90
15156;DHT22;7678;50.058;8.306;2023-04-03T05:12:40;2.50;99.90
15156;DHT22;7678;50.058;8.306;2023-04-03T05:15:10;2.50;99.90
15156;DHT22;7678;50.058;8.306;2023-04-03T05:17:39;2.50;99.90
15156;DHT22;7678;50.058;8.306;2023-04-03T05:20:07;2.60;99.90
15156;DHT22;7678;50.058;8.306;2023-04-03T05:22:36;2.50;99.90
15156;DHT22;7678;50.058;8.306;2023-04-03T05:25:05;2.50;99.90
15156;DHT22;7678;50.058;8.306;2023-04-03T05:27:33;2.50;99.90
15156;DHT22;7678;50.058;8.306;2023-04-03T05:30:02;2.50;99.90
15156;DHT22;7678;50.058;8.306;2023-04-03T05:32:32;2.50;99.90
15156;DHT22;7678;50.058;8.306;2023-04-03T05:35:01;2.40;99.90
15156;DHT22;7678;50.058;8.306;2023-04-03T05:37:30;2.40;99.90
15156;DHT22;7678;50.058;8.306;2023-04-03T05:39:58;2.40;99.90
15156;DHT22;7678;50.058;8.306;2023-04-03T05:42:26;2.40;99.90
15156;DHT22;7678;50.058;8.306;2023-04-03T05:44:55;2.50;99.90
15156;DHT22;7678;50.058;8.306;2023-04-03T05:47:24;2.50;99.90
15156;DHT22;7678;50.058;8.306;2023-04-03T05:49:59;2.60;99.90
15156;DHT22;7678;50.058;8.306;2023-04-03T05:52:29;2.60;99.90
15156;DHT22;7678;50.058;8.306;2023-04-03T05:54:57;2.70;99.90
15156;DHT22;7678;50.058;8.306;2023-04-03T05:57:25;2.80;99.90
15156;DHT22;7678;50.058;8.306;2023-04-03T05:59:54;2.80;99.90
15156;DHT22;7678;50.058;8.306;2023-04-03T06:02:24;2.90;99.90
15156;DHT22;7678;50.058;8.306;2023-04-03T06:04:52;2.90;99.90
15156;DHT22;7678;50.058;8.306;2023-04-03T06:07:24;2.90;99.90
15156;DHT22;7678;50.058;8.306;2023-04-03T06:09:56;2.90;99.90
15156;DHT22;7678;50.058;8.306;2023-04-03T06:12:24;2.90;99.90
15156;DHT22;7678;50.058;8.306;2023-04-03T06:14:53;2.90;99.90
15156;DHT22;7678;50.058;8.306;2023-04-03T06:17:21;3.10;99.90
15156;DHT22;7678;50.058;8.306;2023-04-03T06:19:50;3.20;99.90
15156;DHT22;7678;50.058;8.306;2023-04-03T06:22:19;3.20;99.90
15156;DHT22;7678;50.058;8.306;2023-04-03T06:24:49;3.30;99.90
15156;DHT22;7678;50.058;8.306;2023-04-03T06:27:17;3.50;99.90
15156;DHT22;7678;50.058;8.306;2023-04-03T06:29:46;3.60;99.90
15156;DHT22;7678;50.058;8.306;2023-04-03T06:32:15;3.60;99.90
15156;DHT22;7678;50.058;8.306;2023-04-03T06:34:46;3.50;99.90
15156;DHT22;7678;50.058;8.306;2023-04-03T06:37:15;3.50;99.90
15156;DHT22;7678;50.058;8.306;2023-04-03T06:39:44;3.60;99.90
15156;DHT22;7678;50.058;8.306;2023-04-03T06:42:14;3.60;99.90
15156;DHT22;7678;50.058;8.306;2023-04-03T06:44:42;3.60;99.90
15156;DHT22;7678;50.058;8.306;2023-04-03T06:47:11;3.70;99.90
15156;DHT22;7678;50.058;8.306;2023-04-03T06:49:42;3.60;99.90
15156;DHT22;7678;50.058;8.306;2023-04-03T06:52:10;3.60;99.90
15156;DHT22;7678;50.058;8.306;2023-04-03T06:54:40;3.70;99.90
15156;DHT22;7678;50.058;8.306;2023-04-03T06:57:08;3.80;99.90
15156;DHT22;7678;50.058;8.306;2023-04-03T06:59:37;3.70;99.90
15156;DHT22;7678;50.058;8.306;2023-04-03T07:02:08;3.70;99.90
15156;DHT22;7678;50.058;8.306;2023-04-03T07:04:39;3.90;99.90
15156;DHT22;7678;50.058;8.306;2023-04-03T07:07:08;3.90;99.90
15156;DHT22;7678;50.058;8.306;2023-04-03T07:09:36;3.90;99.90
15156;DHT22;7678;50.058;8.306;2023-04-03T07:12:05;4.10;99.90
15156;DHT22;7678;50.058;8.306;2023-04-03T07:14:34;4.10;99.90
15156;DHT22;7678;50.058;8.306;2023-04-03T07:17:04;4.10;99.90
15156;DHT22;7678;50.058;8.306;2023-04-03T07:19:33;4.20;99.90
15156;DHT22;7678;50.058;8.306;2023-04-03T07:22:01;4.10;99.90
15156;DHT22;7678;50.058;8.306;2023-04-03T07:24:30;4.10;99.90
15156;DHT22;7678;50.058;8.306;2023-04-03T07:27:00;4.20;99.90
15156;DHT22;7678;50.058;8.306;2023-04-03T07:29:30;4.30;99.90
15156;DHT22;7678;50.058;8.306;2023-04-03T07:31:58;4.30;99.90
15156;DHT22;7678;50.058;8.306;2023-04-03T07:34:28;4.40;99.90
15156;DHT22;7678;50.058;8.306;2023-04-03T07:36:57;4.30;99.90
15156;DHT22;7678;50.058;8.306;2023-04-03T07:39:25;4.50;99.90
15156;DHT22;7678;50.058;8.306;2023-04-03T07:41:54;4.50;99.90
15156;DHT22;7678;50.058;8.306;2023-04-03T07:44:23;4.60;99.90
15156;DHT22;7678;50.058;8.306;2023-04-03T07:46:51;4.60;99.90
15156;DHT22;7678;50.058;8.306;2023-04-03T07:49:19;4.60;99.90
15156;DHT22;7678;50.058;8.306;2023-04-03T07:51:51;4.60;99.90
15156;DHT22;7678;50.058;8.306;2023-04-03T07:54:20;4.60;99.90
15156;DHT22;7678;50.058;8.306;2023-04-03T07:56:48;4.70;99.90
15156;DHT22;7678;50.058;8.306;2023-04-03T07:59:16;4.70;99.90
15156;DHT22;7678;50.058;8.306;2023-04-03T08:01:45;4.70;99.90
15156;DHT22;7678;50.058;8.306;2023-04-03T08:04:13;4.80;99.90
15156;DHT22;7678;50.058;8.306;2023-04-03T08:06:42;4.80;99.90
15156;DHT22;7678;50.058;8.306;2023-04-03T08:09:14;4.80;99.90
15156;DHT22;7678;50.058;8.306;2023-04-03T08:11:43;4.80;97.50
15156;DHT22;7678;50.058;8.306;2023-04-03T08:14:12;4.70;98.80
15156;DHT22;7678;50.058;8.306;2023-04-03T08:16:44;4.70;99.90
15156;DHT22;7678;50.058;8.306;2023-04-03T08:19:12;4.80;99.90
15156;DHT22;7678;50.058;8.306;2023-04-03T08:21:54;4.90;99.90
15156;DHT22;7678;50.058;8.306;2023-04-03T08:24:24;4.90;99.90
15156;DHT22;7678;50.058;8.306;2023-04-03T08:26:54;4.90;98.40
15156;DHT22;7678;50.058;8.306;2023-04-03T08:29:22;5.00;99.40
15156;DHT22;7678;50.058;8.306;2023-04-03T08:31:50;4.90;96.80
15156;DHT22;7678;50.058;8.306;2023-04-03T08:34:21;4.90;98.90
15156;DHT22;7678;50.058;8.306;2023-04-03T08:36:50;5.10;99.90
15156;DHT22;7678;50.058;8.306;2023-04-03T08:39:21;5.10;99.90
15156;DHT22;7678;50.058;8.306;2023-04-03T08:41:50;5.10;96.00
15156;DHT22;7678;50.058;8.306;2023-04-03T08:44:24;5.00;98.10
15156;DHT22;7678;50.058;8.306;2023-04-03T08:47:12;4.90;98.80
15156;DHT22;7678;50.058;8.306;2023-04-03T08:49:50;5.00;99.40
15156;DHT22;7678;50.058;8.306;2023-04-03T08:52:35;5.10;98.70
15156;DHT22;7678;50.058;8.306;2023-04-03T08:55:06;5.40;99.90
15156;DHT22;7678;50.058;8.306;2023-04-03T08:57:41;5.20;96.70
15156;DHT22;7678;50.058;8.306;2023-04-03T09:00:17;5.00;97.10
15156;DHT22;7678;50.058;8.306;2023-04-03T09:02:48;5.20;95.40
15156;DHT22;7678;50.058;8.306;2023-04-03T09:05:20;5.30;93.00
15156;DHT22;7678;50.058;8.306;2023-04-03T09:07:57;5.40;90.80
15156;DHT22;7678;50.058;8.306;2023-04-03T09:10:34;5.60;92.00
15156;DHT22;7678;50.058;8.306;2023-04-03T09:13:12;5.60;90.00
15156;DHT22;7678;50.058;8.306;2023-04-03T09:15:44;5.50;73.10
15156;DHT22;7678;50.058;8.306;2023-04-03T09:18:16;5.60;91.70
15156;DHT22;7678;50.058;8.306;2023-04-03T09:20:52;5.60;81.10
15156;DHT22;7678;50.058;8.306;2023-04-03T09:23:26;5.50;85.50
15156;DHT22;7678;50.058;8.306;2023-04-03T09:26:02;5.60;82.00
15156;DHT22;7678;50.058;8.306;2023-04-03T09:28:37;5.60;86.80
15156;DHT22;7678;50.058;8.306;2023-04-03T09:31:22;5.90;83.40
15156;DHT22;7678;50.058;8.306;2023-04-03T09:33:53;6.10;70.20
15156;DHT22;7678;50.058;8.306;2023-04-03T09:36:38;6.00;71.30
15156;DHT22;7678;50.058;8.306;2023-04-03T09:39:11;5.90;72.60
15156;DHT22;7678;50.058;8.306;2023-04-03T09:41:41;6.10;75.60
15156;DHT22;7678;50.058;8.306;2023-04-03T09:44:24;6.30;77.20
15156;DHT22;7678;50.058;8.306;2023-04-03T09:46:54;6.00;76.30
15156;DHT22;7678;50.058;8.306;2023-04-03T09:49:22;5.70;75.20
15156;DHT22;7678;50.058;8.306;2023-04-03T09:51:51;5.50;79.20
15156;DHT22;7678;50.058;8.306;2023-04-03T09:54:35;5.60;81.50
15156;DHT22;7678;50.058;8.306;2023-04-03T09:57:09;5.80;77.50
15156;DHT22;7678;50.058;8.306;2023-04-03T09:59:57;6.00;82.00
15156;DHT22;7678;50.058;8.306;2023-04-03T10:02:34;5.90;81.60
15156;DHT22;7678;50.058;8.306;2023-04-03T10:05:05;5.90;79.40
15156;DHT22;7678;50.058;8.306;2023-04-03T10:08:08;6.10;90.80
15156;DHT22;7678;50.058;8.306;2023-04-03T10:10:37;5.80;87.70
15156;DHT22;7678;50.058;8.306;2023-04-03T10:13:10;6.10;88.60
15156;DHT22;7678;50.058;8.306;2023-04-03T10:15:51;5.90;85.10
15156;DHT22;7678;50.058;8.306;2023-04-03T10:18:30;5.60;85.30
15156;DHT22;7678;50.058;8.306;2023-04-03T10:21:04;5.70;89.60
15156;DHT22;7678;50.058;8.306;2023-04-03T10:23:53;5.40;87.40
15156;DHT22;7678;50.058;8.306;2023-04-03T10:26:29;5.30;83.70
15156;DHT22;7678;50.058;8.306;2023-04-03T10:29:05;5.50;83.70
15156;DHT22;7678;50.058;8.306;2023-04-03T10:31:41;5.60;86.80
15156;DHT22;7678;50.058;8.306;2023-04-03T10:34:18;5.60;84.60
15156;DHT22;7678;50.058;8.306;2023-04-03T10:36:54;6.10;90.40
15156;DHT22;7678;50.058;8.306;2023-04-03T10:39:27;6.20;87.50
15156;DHT22;7678;50.058;8.306;2023-04-03T10:42:05;6.10;77.20
15156;DHT22;7678;50.058;8.306;2023-04-03T10:44:54;6.50;85.60
15156;DHT22;7678;50.058;8.306;2023-04-03T10:47:34;6.40;83.40
15156;DHT22;7678;50.058;8.306;2023-04-03T10:53:00;6.70;76.50
15156;DHT22;7678;50.058;8.306;2023-04-03T10:55:37;6.50;71.70
15156;DHT22;7678;50.058;8.306;2023-04-03T10:58:06;6.70;73.10
15156;DHT22;7678;50.058;8.306;2023-04-03T11:00:43;6.90;69.00
15156;DHT22;7678;50.058;8.306;2023-04-03T11:03:16;6.90;70.70
15156;DHT22;7678;50.058;8.306;2023-04-03T11:05:47;7.30;73.20
15156;DHT22;7678;50.058;8.306;2023-04-03T11:08:26;7.30;70.20
15156;DHT22;7678;50.058;8.306;2023-04-03T11:11:00;7.30;63.50
15156;DHT22;7678;50.058;8.306;2023-04-03T11:13:33;7.20;69.10
15156;DHT22;7678;50.058;8.306;2023-04-03T11:16:04;6.90;66.30
15156;DHT22;7678;50.058;8.306;2023-04-03T11:18:39;7.10;63.80
15156;DHT22;7678;50.058;8.306;2023-04-03T11:21:13;7.20;65.80
15156;DHT22;7678;50.058;8.306;2023-04-03T11:23:46;7.50;64.20
15156;DHT22;7678;50.058;8.306;2023-04-03T11:26:18;7.50;64.30
15156;DHT22;7678;50.058;8.306;2023-04-03T11:28:52;7.30;63.50
15156;DHT22;7678;50.058;8.306;2023-04-03T11:31:30;7.00;63.40
15156;DHT22;7678;50.058;8.306;2023-04-03T11:34:12;6.80;61.40
15156;DHT22;7678;50.058;8.306;2023-04-03T11:36:45;7.20;59.30
15156;DHT22;7678;50.058;8.306;2023-04-03T11:39:20;7.80;62.40
15156;DHT22;7678;50.058;8.306;2023-04-03T11:41:50;8.00;61.10
15156;DHT22;7678;50.058;8.306;2023-04-03T11:44:34;7.60;58.80
15156;DHT22;7678;50.058;8.306;2023-04-03T11:47:05;7.40;56.60
15156;DHT22;7678;50.058;8.306;2023-04-03T11:49:56;7.40;59.90
15156;DHT22;7678;50.058;8.306;2023-04-03T11:52:56;7.20;58.10
15156;DHT22;7678;50.058;8.306;2023-04-03T11:55:44;7.50;58.40
15156;DHT22;7678;50.058;8.306;2023-04-03T11:58:15;7.30;55.50
15156;DHT22;7678;50.058;8.306;2023-04-03T12:01:00;7.10;57.80
15156;DHT22;7678;50.058;8.306;2023-04-03T12:09:28;7.50;56.50
15156;DHT22;7678;50.058;8.306;2023-04-03T12:11:59;7.50;55.60
15156;DHT22;7678;50.058;8.306;2023-04-03T12:14:28;7.90;55.50
15156;DHT22;7678;50.058;8.306;2023-04-03T12:16:58;7.70;54.00
15156;DHT22;7678;50.058;8.306;2023-04-03T12:19:31;7.80;54.60
15156;DHT22;7678;50.058;8.306;2023-04-03T12:22:14;7.80;55.10
15156;DHT22;7678;50.058;8.306;2023-04-03T12:24:45;7.70;52.50
15156;DHT22;7678;50.058;8.306;2023-04-03T12:27:25;8.00;55.30
15156;DHT22;7678;50.058;8.306;2023-04-03T12:29:58;8.00;52.70
15156;DHT22;7678;50.058;8.306;2023-04-03T12:32:41;8.10;53.00
15156;DHT22;7678;50.058;8.306;2023-04-03T12:35:19;7.90;50.50
15156;DHT22;7678;50.058;8.306;2023-04-03T12:38:15;7.40;52.00
15156;DHT22;7678;50.058;8.306;2023-04-03T12:40:50;7.60;52.40
15156;DHT22;7678;50.058;8.306;2023-04-03T12:43:34;7.80;50.40
15156;DHT22;7678;50.058;8.306;2023-04-03T12:46:11;7.80;50.40
15156;DHT22;7678;50.058;8.306;2023-04-03T12:48:51;8.10;49.70
15156;DHT22;7678;50.058;8.306;2023-04-03T12:51:22;8.00;49.20
15156;DHT22;7678;50.058;8.306;2023-04-03T12:54:00;8.10;49.90
15156;DHT22;7678;50.058;8.306;2023-04-03T12:56:31;8.20;50.60
15156;DHT22;7678;50.058;8.306;2023-04-03T12:59:14;8.30;49.40
15156;DHT22;7678;50.058;8.306;2023-04-03T13:01:43;8.60;49.30
15156;DHT22;7678;50.058;8.306;2023-04-03T13:04:12;8.40;48.40
15156;DHT22;7678;50.058;8.306;2023-04-03T13:06:41;8.70;48.90
15156;DHT22;7678;50.058;8.306;2023-04-03T13:09:19;8.60;48.90
15156;DHT22;7678;50.058;8.306;2023-04-03T13:11:52;8.90;47.80
15156;DHT22;7678;50.058;8.306;2023-04-03T13:14:24;8.70;47.90
15156;DHT22;7678;50.058;8.306;2023-04-03T13:16:56;8.20;48.70
15156;DHT22;7678;50.058;8.306;2023-04-03T13:19:25;8.40;49.60
15156;DHT22;7678;50.058;8.306;2023-04-03T13:22:00;8.90;47.60
15156;DHT22;7678;50.058;8.306;2023-04-03T13:24:31;8.80;46.80
15156;DHT22;7678;50.058;8.306;2023-04-03T13:27:02;8.90;48.00
15156;DHT22;7678;50.058;8.306;2023-04-03T13:29:33;8.30;47.60
15156;DHT22;7678;50.058;8.306;2023-04-03T13:32:02;8.70;47.30
15156;DHT22;7678;50.058;8.306;2023-04-03T13:34:36;8.90;46.30
15156;DHT22;7678;50.058;8.306;2023-04-03T13:37:06;8.90;46.20
15156;DHT22;7678;50.058;8.306;2023-04-03T13:39:36;8.60;45.10
15156;DHT22;7678;50.058;8.306;2023-04-03T13:42:20;8.80;45.20
15156;DHT22;7678;50.058;8.306;2023-04-03T13:44:49;8.80;45.50
15156;DHT22;7678;50.058;8.306;2023-04-03T13:47:38;8.50;45.20
15156;DHT22;7678;50.058;8.306;2023-04-03T13:50:16;8.80;46.10
15156;DHT22;7678;50.058;8.306;2023-04-03T13:52:47;8.80;43.90
15156;DHT22;7678;50.058;8.306;2023-04-03T13:55:20;8.80;45.80
15156;DHT22;7678;50.058;8.306;2023-04-03T13:57:56;8.90;46.80
15156;DHT22;7678;50.058;8.306;2023-04-03T14:00:35;8.80;45.90
15156;DHT22;7678;50.058;8.306;2023-04-03T14:03:13;8.70;45.10
15156;DHT22;7678;50.058;8.306;2023-04-03T14:05:41;8.60;44.40
15156;DHT22;7678;50.058;8.306;2023-04-03T14:08:09;8.60;45.80
15156;DHT22;7678;50.058;8.306;2023-04-03T14:10:37;8.30;46.20
15156;DHT22;7678;50.058;8.306;2023-04-03T14:13:10;8.30;46.50
15156;DHT22;7678;50.058;8.306;2023-04-03T14:15:40;8.30;47.80
15156;DHT22;7678;50.058;8.306;2023-04-03T14:18:11;8.20;45.10
15156;DHT22;7678;50.058;8.306;2023-04-03T14:20:39;8.40;46.00
15156;DHT22;7678;50.058;8.306;2023-04-03T14:23:08;8.20;44.20
15156;DHT22;7678;50.058;8.306;2023-04-03T14:25:39;8.50;47.10
15156;DHT22;7678;50.058;8.306;2023-04-03T14:28:16;8.20;46.10
15156;DHT22;7678;50.058;8.306;2023-04-03T14:30:45;8.40;44.30
15156;DHT22;7678;50.058;8.306;2023-04-03T14:33:15;8.30;45.80
15156;DHT22;7678;50.058;8.306;2023-04-03T14:35:44;8.10;44.90
15156;DHT22;7678;50.058;8.306;2023-04-03T14:38:23;8.10;45.10
15156;DHT22;7678;50.058;8.306;2023-04-03T14:40:52;8.40;45.80
15156;DHT22;7678;50.058;8.306;2023-04-03T14:43:25;8.40;45.50
15156;DHT22;7678;50.058;8.306;2023-04-03T14:45:54;8.60;46.60
15156;DHT22;7678;50.058;8.306;2023-04-03T14:48:24;8.80;46.30
15156;DHT22;7678;50.058;8.306;2023-04-03T14:50:53;8.90;44.50
15156;DHT22;7678;50.058;8.306;2023-04-03T14:53:32;8.50;46.50
15156;DHT22;7678;50.058;8.306;2023-04-03T14:56:09;8.30;46.50
15156;DHT22;7678;50.058;8.306;2023-04-03T14:58:39;8.60;46.00
15156;DHT22;7678;50.058;8.306;2023-04-03T15:01:09;8.40;45.00
15156;DHT22;7678;50.058;8.306;2023-04-03T15:03:38;8.30;45.50
15156;DHT22;7678;50.058;8.306;2023-04-03T15:06:08;8.60;45.70
15156;DHT22;7678;50.058;8.306;2023-04-03T15:08:37;8.50;46.00
15156;DHT22;7678;50.058;8.306;2023-04-03T15:11:08;8.20;45.50
15156;DHT22;7678;50.058;8.306;2023-04-03T15:13:37;8.20;46.70
15156;DHT22;7678;50.058;8.306;2023-04-03T15:16:14;8.30;46.40
15156;DHT22;7678;50.058;8.306;2023-04-03T15:18:43;8.40;45.60
15156;DHT22;7678;50.058;8.306;2023-04-03T15:21:12;8.10;44.50
15156;DHT22;7678;50.058;8.306;2023-04-03T15:23:40;8.30;46.30
15156;DHT22;7678;50.058;8.306;2023-04-03T15:26:09;8.00;44.50
15156;DHT22;7678;50.058;8.306;2023-04-03T15:28:39;8.00;45.60
15156;DHT22;7678;50.058;8.306;2023-04-03T15:31:09;8.00;46.50
15156;DHT22;7678;50.058;8.306;2023-04-03T15:33:37;8.10;46.90
15156;DHT22;7678;50.058;8.306;2023-04-03T15:36:06;7.90;47.40
15156;DHT22;7678;50.058;8.306;2023-04-03T15:38:54;7.90;47.00
15156;DHT22;7678;50.058;8.306;2023-04-03T15:41:22;7.90;46.40
15156;DHT22;7678;50.058;8.306;2023-04-03T15:43:50;7.90;46.80
15156;DHT22;7678;50.058;8.306;2023-04-03T15:46:19;7.90;45.60
15156;DHT22;7678;50.058;8.306;2023-04-03T15:48:48;8.00;44.40
15156;DHT22;7678;50.058;8.306;2023-04-03T15:51:16;8.00;44.20
15156;DHT22;7678;50.058;8.306;2023-04-03T15:53:44;7.80;44.60
15156;DHT22;7678;50.058;8.306;2023-04-03T15:56:12;8.00;43.90
15156;DHT22;7678;50.058;8.306;2023-04-03T15:58:40;7.80;43.50
15156;DHT22;7678;50.058;8.306;2023-04-03T16:01:09;7.80;44.80
15156;DHT22;7678;50.058;8.306;2023-04-03T16:03:40;7.80;45.00
15156;DHT22;7678;50.058;8.306;2023-04-03T16:06:12;7.80;46.30
15156;DHT22;7678;50.058;8.306;2023-04-03T16:08:41;7.90;48.10
15156;DHT22;7678;50.058;8.306;2023-04-03T16:11:09;7.90;46.90
15156;DHT22;7678;50.058;8.306;2023-04-03T16:13:37;8.00;47.20
15156;DHT22;7678;50.058;8.306;2023-04-03T16:16:06;8.00;47.40
15156;DHT22;7678;50.058;8.306;2023-04-03T16:18:35;7.90;46.90
15156;DHT22;7678;50.058;8.306;2023-04-03T16:21:06;7.90;46.40
15156;DHT22;7678;50.058;8.306;2023-04-03T16:23:34;7.70;46.40
15156;DHT22;7678;50.058;8.306;2023-04-03T16:26:02;7.80;46.80
15156;DHT22;7678;50.058;8.306;2023-04-03T16:28:30;7.80;46.30
15156;DHT22;7678;50.058;8.306;2023-04-03T16:31:00;7.80;46.70
15156;DHT22;7678;50.058;8.306;2023-04-03T16:33:29;7.70;45.90
15156;DHT22;7678;50.058;8.306;2023-04-03T16:35:57;7.60;46.00
15156;DHT22;7678;50.058;8.306;2023-04-03T16:38:27;7.60;46.60